createdAt,value
2022-09-15T00:03:59.793Z,149924.31
2022-09-15T00:09:06.621Z,149981.19
2022-09-15T00:14:11.317Z,149998.00
2022-09-15T00:19:15.868Z,150032.91
2022-09-15T00:24:22.057Z,150045.81
2022-09-15T00:29:26.330Z,150062.69
2022-09-15T00:34:30.540Z,150067.84
2022-09-15T00:39:36.725Z,150027.75
2022-09-15T00:44:59.092Z,150009.63
2022-09-15T00:50:08.405Z,150058.78
2022-09-15T00:55:20.618Z,150003.16
2022-09-15T01:00:27.623Z,149977.31
2022-09-15T01:05:35.229Z,149950.16
2022-09-15T01:10:43.295Z,149934.66
2022-09-15T01:15:59.581Z,149925.59
2022-09-15T01:21:19.090Z,149943.72
2022-09-15T01:26:55.389Z,149966.97
2022-09-15T01:32:24.870Z,149938.53
2022-09-15T01:37:34.675Z,149955.34
2022-09-15T01:42:39.563Z,149959.22
2022-09-15T01:47:47.936Z,149952.78
2022-09-15T01:52:57.244Z,149935.94
2022-09-15T01:58:02.161Z,149939.81
2022-09-15T02:03:18.507Z,149952.78
2022-09-15T02:08:30.492Z,149964.41
2022-09-15T02:13:45.712Z,149934.66
2022-09-15T02:19:10.587Z,149948.84
2022-09-15T02:24:20.892Z,149956.63
2022-09-15T02:29:28.694Z,149957.91
2022-09-15T02:34:39.022Z,149957.91
2022-09-15T02:39:49.317Z,149991.53
2022-09-15T02:44:54.244Z,149977.31
2022-09-15T02:50:00.395Z,150012.22
2022-09-15T02:55:04.671Z,150013.50
2022-09-15T03:00:15.465Z,150029.03
2022-09-15T03:05:23.773Z,150010.94
2022-09-15T03:10:28.359Z,150044.53
2022-09-15T03:15:33.729Z,150048.41
2022-09-15T03:20:40.251Z,150065.28
2022-09-15T03:25:47.656Z,150064.00
2022-09-15T03:30:52.012Z,150093.75
2022-09-15T03:35:58.804Z,150083.41
2022-09-15T03:41:05.219Z,150104.09
2022-09-15T03:46:13.667Z,150119.59
2022-09-15T03:51:19.842Z,150097.59
2022-09-15T03:56:28.131Z,150120.88
2022-09-15T04:01:33.146Z,150088.53
2022-09-15T04:06:40.681Z,150062.69
2022-09-15T04:11:45.037Z,150095.03
2022-09-15T04:16:49.949Z,150105.38
2022-09-15T04:21:55.860Z,150098.91
2022-09-15T04:27:00.153Z,150083.41
2022-09-15T04:32:05.216Z,150123.44
2022-09-15T04:37:11.859Z,150114.44
2022-09-15T04:42:17.228Z,150132.50
2022-09-15T04:47:22.152Z,150114.44
2022-09-15T04:52:27.924Z,150122.16
2022-09-15T04:57:32.371Z,150118.31
2022-09-15T05:02:36.581Z,150109.25
2022-09-15T05:07:42.916Z,150142.84
2022-09-15T05:12:47.134Z,150137.72
2022-09-15T05:17:52.532Z,150153.22
2022-09-15T05:22:58.968Z,150214.03
2022-09-15T05:28:03.912Z,150173.91
2022-09-15T05:33:08.463Z,150206.25
2022-09-15T05:38:14.662Z,150241.16
2022-09-15T05:43:20.578Z,150274.78
2022-09-15T05:48:25.206Z,150290.34
2022-09-15T05:53:31.511Z,150180.41
2022-09-15T05:58:36.965Z,150041.97
2022-09-15T06:03:41.451Z,149978.59
2022-09-15T06:08:55.313Z,149913.97
2022-09-15T06:14:03.414Z,149906.22
2022-09-15T06:19:08.984Z,149850.63
2022-09-15T06:24:14.840Z,149855.84
2022-09-15T06:29:19.262Z,149851.94
2022-09-15T06:34:24.142Z,149823.53
2022-09-15T06:39:30.741Z,149806.72
2022-09-15T06:44:35.402Z,149791.22
2022-09-15T06:49:39.821Z,149814.47
2022-09-15T06:54:46.258Z,149823.53
2022-09-15T06:59:50.289Z,149826.09
2022-09-15T07:04:54.619Z,149850.63
2022-09-15T07:10:02.976Z,149875.19
2022-09-15T07:15:09.225Z,149880.38
2022-09-15T07:20:13.914Z,149912.69
2022-09-15T07:25:20.291Z,149907.50
2022-09-15T07:30:24.629Z,149961.78
2022-09-15T07:35:29.267Z,150029.03
2022-09-15T07:40:35.574Z,150047.13
2022-09-15T07:45:40.599Z,150137.72
2022-09-15T07:50:48.811Z,150135.09
2022-09-15T07:55:55.544Z,150181.69
2022-09-15T08:01:04.254Z,150201.03
2022-09-15T08:06:09.052Z,150198.47
2022-09-15T08:11:19.210Z,150101.47
2022-09-15T08:16:26.340Z,150171.34
2022-09-15T08:21:31.452Z,150267.06
2022-09-15T08:26:39.138Z,150269.66
2022-09-15T08:31:45.208Z,150233.38
2022-09-15T08:36:49.508Z,150256.72
2022-09-15T08:41:56.940Z,150316.22
2022-09-15T08:47:06.077Z,150360.25
2022-09-15T08:52:17.797Z,150456.03
2022-09-15T08:57:27.861Z,150281.28
2022-09-15T09:03:03.985Z,150303.28
2022-09-15T09:08:27.764Z,150309.72
2022-09-15T09:13:43.973Z,150335.69
2022-09-15T09:19:02.418Z,150366.75
2022-09-15T09:24:15.433Z,150598.50
2022-09-15T09:29:32.217Z,150658.09
2022-09-15T09:34:45.561Z,150654.19
2022-09-15T09:39:50.469Z,150838.22
2022-09-15T09:44:57.688Z,150953.59
2022-09-15T09:50:02.460Z,150748.78
2022-09-15T09:55:24.152Z,150630.88
2022-09-15T10:00:38.500Z,150575.16
2022-09-15T10:05:43.520Z,150467.69
2022-09-15T10:10:56.255Z,150630.88
2022-09-15T10:16:06.904Z,150592.00
2022-09-15T10:21:12.213Z,150555.72
2022-09-15T10:26:32.446Z,150597.22
2022-09-15T10:31:38.800Z,150551.84
2022-09-15T10:36:43.100Z,150375.81
2022-09-15T10:41:55.756Z,150252.81
2022-09-15T10:47:10.751Z,150163.56
2022-09-15T10:52:26.336Z,150208.81
2022-09-15T10:57:50.753Z,150311.06
2022-09-15T11:03:32.822Z,150229.53
2022-09-15T11:08:53.268Z,150176.47
2022-09-15T11:14:10.640Z,150097.59
2022-09-15T11:19:39.855Z,150136.44
2022-09-15T11:24:49.679Z,150001.88
2022-09-15T11:30:03.733Z,149974.75
2022-09-15T11:35:31.451Z,150098.91
2022-09-15T11:40:41.402Z,150242.44
2022-09-15T11:45:50.395Z,150287.72
2022-09-15T11:51:00.532Z,150316.22
2022-09-15T11:56:16.291Z,150276.09
2022-09-15T12:01:24.563Z,150274.78
2022-09-15T12:06:40.914Z,150230.81
2022-09-15T12:11:51.357Z,150181.69
2022-09-15T12:16:56.057Z,150142.84
2022-09-15T12:22:10.498Z,150088.53
2022-09-15T12:27:18.081Z,150070.44
2022-09-15T12:32:29.103Z,150070.44
2022-09-15T12:37:42.009Z,150104.09
2022-09-15T12:42:49.525Z,150096.31
2022-09-15T12:47:57.835Z,150095.03
2022-09-15T12:53:05.817Z,150184.25
2022-09-15T12:58:13.270Z,150135.09
2022-09-15T13:03:51.293Z,150180.41
2022-09-15T13:09:27.947Z,150292.94
2022-09-15T13:14:39.769Z,150370.59
2022-09-15T13:19:47.937Z,150449.56
2022-09-15T13:25:01.604Z,150353.81
2022-09-15T13:30:27.252Z,150246.38
2022-09-15T13:36:00.787Z,150261.88
2022-09-15T13:41:31.396Z,150347.31
2022-09-15T13:46:50.139Z,150216.59
2022-09-15T13:52:02.411Z,150171.34
2022-09-15T13:57:10.337Z,150096.31
2022-09-15T14:02:17.068Z,150137.72
2022-09-15T14:07:25.577Z,150180.41
2022-09-15T14:12:31.271Z,150176.47
2022-09-15T14:17:46.904Z,150195.91
2022-09-15T14:22:54.767Z,150195.91
2022-09-15T14:28:01.057Z,150145.44
2022-09-15T14:33:05.956Z,150058.78
2022-09-15T14:38:23.711Z,150127.34
2022-09-15T14:43:35.988Z,150095.03
2022-09-15T14:48:40.373Z,150115.72
2022-09-15T14:53:46.328Z,150067.84
2022-09-15T14:58:55.108Z,150038.06
2022-09-15T15:04:06.465Z,150026.41
2022-09-15T15:09:21.563Z,150032.91
2022-09-15T15:14:27.694Z,150008.34
2022-09-15T15:19:34.092Z,149957.91
2022-09-15T15:24:42.246Z,149917.84
2022-09-15T15:29:48.296Z,149948.84
2022-09-15T15:34:55.921Z,149996.72
2022-09-15T15:40:04.361Z,149978.59
2022-09-15T15:45:26.210Z,149979.88
2022-09-15T15:50:32.819Z,149982.47
2022-09-15T15:55:42.156Z,149961.78
2022-09-15T16:00:51.282Z,149959.22
2022-09-15T16:05:59.569Z,149998.00
2022-09-15T16:11:04.894Z,149970.84
2022-09-15T16:16:15.814Z,149999.28
2022-09-15T16:21:23.577Z,149992.81
2022-09-15T16:26:27.962Z,149929.47
2022-09-15T16:31:35.166Z,149904.91
2022-09-15T16:36:40.119Z,149892.00
2022-09-15T16:41:44.620Z,149831.25
2022-09-15T16:46:51.262Z,149782.19
2022-09-15T16:51:56.472Z,149754.97
2022-09-15T16:57:01.210Z,149742.06
2022-09-15T17:02:14.138Z,149698.16
2022-09-15T17:07:19.095Z,149616.81
2022-09-15T17:12:24.191Z,149677.47
2022-09-15T17:17:29.670Z,149676.19
2022-09-15T17:22:34.330Z,149631.00
2022-09-15T17:27:39.433Z,149667.16
2022-09-15T17:32:45.293Z,149722.69
2022-09-15T17:37:50.242Z,149650.38
2022-09-15T17:42:54.523Z,149699.44
2022-09-15T17:48:01.732Z,149704.63
2022-09-15T17:53:12.749Z,149726.59
2022-09-15T17:58:17.485Z,149627.16
2022-09-15T18:03:28.179Z,149645.19
2022-09-15T18:08:33.783Z,149654.25
2022-09-15T18:13:38.823Z,149600.00
2022-09-15T18:18:45.023Z,149571.59
2022-09-15T18:23:53.417Z,149540.63
2022-09-15T18:28:58.192Z,149563.88
2022-09-15T18:34:04.883Z,149578.06
2022-09-15T18:39:12.136Z,149532.88
2022-09-15T18:44:16.304Z,149489.00
2022-09-15T18:49:22.565Z,149501.88
2022-09-15T18:54:26.780Z,149536.72
2022-09-15T18:59:31.339Z,149566.44
2022-09-15T19:04:40.716Z,149575.47
2022-09-15T19:09:45.479Z,149508.38
2022-09-15T19:14:49.619Z,149491.56
2022-09-15T19:19:56.208Z,149450.25
2022-09-15T19:25:01.144Z,149434.72
2022-09-15T19:30:07.088Z,149416.66
2022-09-15T19:35:13.057Z,149448.97
2022-09-15T19:40:18.754Z,149494.13
2022-09-15T19:45:23.395Z,149518.69
2022-09-15T19:50:29.320Z,149486.41
2022-09-15T19:55:34.749Z,149473.47
2022-09-15T20:00:39.598Z,149429.53
2022-09-15T20:05:51.619Z,149416.66
2022-09-15T20:10:56.309Z,149426.97
2022-09-15T20:16:02.567Z,149437.31
2022-09-15T20:21:14.773Z,149408.91
2022-09-15T20:26:27.147Z,149359.88
2022-09-15T20:31:35.203Z,149370.22
2022-09-15T20:36:44.013Z,149366.34
2022-09-15T20:41:48.537Z,149334.09
2022-09-15T20:46:52.831Z,149336.66
2022-09-15T20:51:58.866Z,149323.78
2022-09-15T20:57:04.109Z,149303.13
2022-09-15T21:02:09.210Z,149304.41
2022-09-15T21:07:15.210Z,149260.56
2022-09-15T21:12:19.633Z,149214.09
2022-09-15T21:17:24.475Z,149219.28
2022-09-15T21:22:30.584Z,149221.84
2022-09-15T21:27:35.390Z,149197.34
2022-09-15T21:32:40.008Z,149187.03
2022-09-15T21:37:46.215Z,149171.56
2022-09-15T21:42:51.299Z,149193.50
2022-09-15T21:47:56.013Z,149141.91
2022-09-15T21:53:02.191Z,149218.00
2022-09-15T21:58:06.504Z,149218.00
2022-09-15T22:03:11.213Z,149274.72
2022-09-15T22:08:18.704Z,149292.81
2022-09-15T22:13:23.517Z,149309.56
2022-09-15T22:18:27.942Z,149318.59
2022-09-15T22:23:34.379Z,149274.72
2022-09-15T22:28:39.501Z,149272.16
2022-09-15T22:33:44.204Z,149274.72
2022-09-15T22:38:50.792Z,149238.63
2022-09-15T22:43:56.053Z,149272.16
2022-09-15T22:49:00.744Z,149285.06
2022-09-15T22:54:07.921Z,149316.03
2022-09-15T22:59:12.541Z,149290.19
2022-09-15T23:04:17.384Z,149290.19
2022-09-15T23:09:23.544Z,149327.63
2022-09-15T23:14:28.075Z,149256.66
2022-09-15T23:19:33.464Z,149174.13
2022-09-15T23:24:39.037Z,149181.84
2022-09-15T23:29:43.294Z,149158.63
2022-09-15T23:34:47.665Z,149168.97
2022-09-15T23:39:53.902Z,149145.75
2022-09-15T23:44:58.637Z,149073.50
2022-09-15T23:50:03.463Z,149149.66
2022-09-15T23:55:11.116Z,149145.75
